首页
METAR-TAF:

METAR-TAF

机场 :

阿加尔塔拉, 印度

纬度: 23-53-24N, 经度: 91-14-32E, 海拔: 14米

当前天气观测

该预报发布于9小时和22分钟前的15:00 UTC
风速3节,风向东转东南
温度 26°C
湿度 94%
气压 1003 hPa
能見度: 3500
散云层高于1800英尺
多云层高于10000英尺
轻雾,

METAR: VEAT 161500Z 12003KT 3500 BR SCT018 BKN100 26/25 Q1003 NOSIG

时间: 05:52 (00:22 UTC)

预报

该预报发布于1小时和22分钟前的23:00 UTC
预报有效从17日的 00点(UTC)到 18日的 06点(UTC)
风速8节,风向南转南东
能見度: 4000
散云层高于1800英尺
少量云层高于3000英尺, 积雨云.
多云层高于10000英尺
轻雾
短暂存在
从 17日的 02点(UTC)到 17日的 04点(UTC)
风速10节,风向西转西南,有时为22节阵风
能見度: 2500
雷暴, 小雨
短暂存在
从 17日的 14点(UTC)到 17日的 16点(UTC)
能見度: 2000
小雨, 轻雾
成为
从 17日的 20点(UTC)到 17日的 22点(UTC)
能見度: 2500
散云层高于1800英尺
散云层高于10000英尺
轻雾
成为
从 18日的 03点(UTC)到 18日的 05点(UTC)
能見度: 4000
霾,

TAF: VEAT 162300Z 1700/1806 16008KT 4000 BR SCT018 FEW030CB BKN100 TEMPO 1702/1704 24010G22KT 2500 -TSRA TEMPO 1714/1716 2000 -RABR BECMG 1720/1722 2500 BR SCT018 SCT100 BECMG 1803/1805 4000 HZ

超过4000个机场的气象观测和天气预报(METAR&TAF报告)。

可查询的气象台以黄色和红色小点在地图上表示。

将鼠标移到小点上方,可查看气象台名称。

然后点击查看天气观测和预报。

如需切换地图:点击带黑十字的绿色按钮放大地图;点击带横线的绿色按钮缩小地图;或者点击绿色箭头查看邻近地区的地图。


METAR-TAF: